Rock Creek, Illinois
Current Conditions -  °F | °C
As of 1:55 AM on Friday 19 Dec 2014 (Local Time) from K5M9 Reporting Station
Overcast Overcast  
Wind Chill: 32°   Ceiling: 5500
Heat Index: 32°   Visibility: 7mi
Dew Point: 28°   Wind: 3mph
Humidity: 87%   Direction: 360°N
Pressure: 30.26"   Gusts: NA
Location:  37.5407°N, 88.2414°W
Report Text: K5M9 190755Z AUTO 36003KT 7SM OVC055 00/M02 A3026 RMK AO2 T10021022
Loading
Personal Weather Stations






























Interactive Weather Map New forecast layout! Learn more

10-Day Weather Forecast

Advertisements
Track Severe Weather on mobile